createdAt,value
2022-11-25T00:01:26.361Z,4.18
2022-11-25T00:03:56.401Z,5.30
2022-11-25T00:06:26.580Z,4.72
2022-11-25T00:08:57.396Z,4.43
2022-11-25T00:11:25.873Z,4.07
2022-11-25T00:13:56.611Z,3.65
2022-11-25T00:16:26.417Z,4.70
2022-11-25T00:18:56.540Z,4.43
2022-11-25T00:21:27.374Z,4.53
2022-11-25T00:23:56.877Z,3.80
2022-11-25T00:26:27.105Z,4.40
2022-11-25T00:28:59.008Z,4.30
2022-11-25T00:31:29.324Z,5.20
2022-11-25T00:33:57.632Z,4.07
2022-11-25T00:36:28.746Z,4.38
2022-11-25T00:41:43.743Z,4.03
2022-11-25T00:44:33.039Z,5.30
2022-11-25T00:47:01.699Z,4.45
2022-11-25T00:49:30.013Z,5.20
2022-11-25T00:51:58.155Z,5.18
2022-11-25T00:54:26.372Z,5.25
2022-11-25T00:56:54.519Z,5.30
2022-11-25T00:59:24.034Z,4.72
2022-11-25T01:01:52.481Z,4.95
2022-11-25T01:04:20.704Z,3.92
2022-11-25T01:06:49.026Z,5.07
2022-11-25T01:09:17.498Z,4.63
2022-11-25T01:11:45.613Z,5.10
2022-11-25T01:14:13.883Z,5.10
2022-11-25T01:16:43.471Z,5.03
2022-11-25T01:19:12.423Z,3.35
2022-11-25T01:21:41.263Z,4.70
2022-11-25T01:24:11.183Z,4.03
2022-11-25T01:26:39.305Z,3.53
2022-11-25T01:29:09.344Z,4.25
2022-11-25T01:31:38.460Z,4.30
2022-11-25T01:34:12.541Z,3.72
2022-11-25T01:36:41.274Z,4.78
2022-11-25T01:39:09.615Z,4.07
2022-11-25T01:41:37.727Z,4.82
2022-11-25T01:44:12.522Z,3.28
2022-11-25T01:46:54.195Z,3.65
2022-11-25T01:49:30.203Z,4.72
2022-11-25T01:52:03.024Z,3.53
2022-11-25T01:54:36.798Z,3.53
2022-11-25T01:57:09.958Z,5.30
2022-11-25T01:59:43.277Z,4.40
2022-11-25T02:02:12.418Z,6.10
2022-11-25T02:04:42.857Z,4.75
2022-11-25T02:07:16.230Z,3.58
2022-11-25T02:09:46.955Z,4.55
2022-11-25T02:12:18.028Z,4.20
2022-11-25T02:17:15.051Z,3.28
2022-11-25T02:19:57.152Z,4.55
2022-11-25T02:22:31.675Z,3.67
2022-11-25T02:25:08.347Z,3.40
2022-11-25T02:27:36.708Z,4.22
2022-11-25T02:30:05.585Z,3.45
2022-11-25T02:32:33.854Z,3.80
2022-11-25T02:35:01.958Z,4.43
2022-11-25T02:37:30.256Z,3.70
2022-11-25T02:39:58.431Z,5.05
2022-11-25T02:42:29.683Z,3.45
2022-11-25T02:44:57.831Z,3.75
2022-11-25T02:47:25.943Z,2.92
2022-11-25T02:49:54.013Z,4.60
2022-11-25T02:52:22.130Z,4.18
2022-11-25T02:54:50.363Z,4.32
2022-11-25T02:57:18.515Z,3.60
2022-11-25T02:59:47.999Z,3.13
2022-11-25T03:02:16.277Z,4.50
2022-11-25T03:04:44.871Z,3.88
2022-11-25T03:07:13.062Z,3.75
2022-11-25T03:09:41.222Z,3.60
2022-11-25T03:12:21.570Z,4.35
2022-11-25T03:14:51.067Z,5.03
2022-11-25T03:17:19.142Z,4.35
2022-11-25T03:19:47.300Z,3.47
2022-11-25T03:22:15.484Z,4.00
2022-11-25T03:24:43.636Z,3.55
2022-11-25T03:27:11.771Z,5.13
2022-11-25T03:29:39.841Z,3.35
2022-11-25T03:32:09.945Z,3.65
2022-11-25T03:34:38.387Z,4.17
2022-11-25T03:37:06.832Z,3.85
2022-11-25T03:39:35.452Z,2.90
2022-11-25T03:42:03.581Z,3.53
2022-11-25T03:44:31.813Z,3.20
2022-11-25T03:47:00.037Z,3.80
2022-11-25T03:49:29.531Z,3.78
2022-11-25T03:51:57.785Z,3.47
2022-11-25T03:54:26.346Z,3.83
2022-11-25T03:56:54.466Z,4.50
2022-11-25T03:59:22.602Z,4.03
2022-11-25T04:01:50.755Z,3.30
2022-11-25T04:04:18.997Z,3.28
2022-11-25T04:06:48.560Z,3.63
2022-11-25T04:09:16.896Z,3.63
2022-11-25T04:12:02.208Z,4.15
2022-11-25T04:14:31.812Z,4.57
2022-11-25T04:16:59.972Z,4.05
2022-11-25T04:19:28.226Z,4.03
2022-11-25T04:21:59.727Z,4.03
2022-11-25T04:24:28.180Z,4.13
2022-11-25T04:26:56.472Z,3.38
2022-11-25T04:29:24.872Z,3.75
2022-11-25T04:31:53.001Z,3.58
2022-11-25T04:34:21.091Z,3.65
2022-11-25T04:36:49.313Z,4.00
2022-11-25T04:39:18.940Z,4.63
2022-11-25T04:41:47.101Z,3.55
2022-11-25T04:44:15.316Z,4.40
2022-11-25T04:46:44.486Z,4.18
2022-11-25T04:49:12.757Z,3.60
2022-11-25T04:51:40.830Z,3.58
2022-11-25T04:54:12.151Z,4.63
2022-11-25T04:56:44.205Z,3.53
2022-11-25T04:59:29.885Z,3.28
2022-11-25T05:01:58.020Z,2.30
2022-11-25T05:04:26.277Z,4.10
2022-11-25T05:06:54.394Z,3.25
2022-11-25T05:09:22.537Z,3.25
2022-11-25T05:11:52.336Z,3.78
2022-11-25T05:14:20.706Z,2.92
2022-11-25T05:16:48.849Z,2.97
2022-11-25T05:19:17.099Z,3.83
2022-11-25T05:21:45.268Z,3.58
2022-11-25T05:24:13.393Z,3.40
2022-11-25T05:26:41.495Z,4.13
2022-11-25T05:29:11.649Z,3.13
2022-11-25T05:31:40.274Z,3.13
2022-11-25T05:34:08.416Z,3.33
2022-11-25T05:36:36.945Z,5.00
2022-11-25T05:39:05.681Z,3.47
2022-11-25T05:41:33.909Z,4.55
2022-11-25T05:44:02.107Z,3.28
2022-11-25T05:46:31.638Z,3.25
2022-11-25T05:49:00.110Z,3.33
2022-11-25T05:51:29.380Z,3.75
2022-11-25T05:53:57.697Z,4.75
2022-11-25T05:56:25.879Z,4.15
2022-11-25T05:58:55.106Z,2.75
2022-11-25T06:01:23.959Z,3.13
2022-11-25T06:03:53.603Z,4.55
2022-11-25T06:06:22.641Z,2.47
2022-11-25T06:08:50.780Z,3.10
2022-11-25T06:11:19.524Z,3.30
2022-11-25T06:13:47.685Z,3.83
2022-11-25T06:16:17.771Z,3.45
2022-11-25T06:18:46.319Z,3.05
2022-11-25T06:21:16.560Z,3.28
2022-11-25T06:23:46.208Z,2.97
2022-11-25T06:26:16.017Z,3.65
2022-11-25T06:28:44.233Z,3.78
2022-11-25T06:31:14.746Z,3.15
2022-11-25T06:33:43.364Z,3.13
2022-11-25T06:36:17.120Z,4.72
2022-11-25T06:38:47.255Z,3.20
2022-11-25T06:41:15.985Z,3.77
2022-11-25T06:43:44.125Z,3.25
2022-11-25T06:46:17.317Z,3.58
2022-11-25T06:48:47.973Z,3.33
2022-11-25T06:51:17.314Z,3.33
2022-11-25T06:53:47.189Z,5.68
2022-11-25T06:56:17.656Z,4.00
2022-11-25T06:58:47.024Z,4.07
2022-11-25T07:01:17.210Z,9.02
2022-11-25T07:03:47.135Z,3.90
2022-11-25T07:06:30.968Z,3.95
2022-11-25T07:09:01.005Z,3.80
2022-11-25T07:11:31.475Z,4.07
2022-11-25T07:14:01.631Z,3.45
2022-11-25T07:16:30.524Z,4.70
2022-11-25T07:19:02.017Z,6.78
2022-11-25T07:21:32.128Z,4.82
2022-11-25T07:24:03.244Z,2.97
2022-11-25T07:29:02.514Z,3.20
2022-11-25T07:31:33.467Z,5.43
2022-11-25T07:34:03.878Z,4.90
2022-11-25T07:36:33.996Z,3.13
2022-11-25T07:39:05.942Z,2.77
2022-11-25T07:41:34.798Z,3.05
2022-11-25T07:44:05.435Z,11.63
2022-11-25T07:46:35.790Z,6.88
2022-11-25T07:49:06.727Z,6.67
2022-11-25T07:51:36.841Z,6.55
2022-11-25T07:54:08.552Z,5.90
2022-11-25T07:56:38.279Z,7.32
2022-11-25T07:59:07.676Z,11.85
2022-11-25T08:01:35.989Z,3.75
2022-11-25T08:04:04.283Z,4.25
2022-11-25T08:06:32.453Z,6.97
2022-11-25T08:09:00.553Z,10.85
2022-11-25T08:11:32.018Z,10.38
2022-11-25T08:14:00.910Z,9.90
2022-11-25T08:16:31.264Z,10.10
2022-11-25T08:19:00.755Z,8.07
2022-11-25T08:21:29.592Z,8.02
2022-11-25T08:23:58.056Z,12.85
2022-11-25T08:26:31.209Z,11.93
2022-11-25T08:29:00.258Z,13.95
2022-11-25T08:31:30.713Z,8.60
2022-11-25T08:34:00.049Z,19.58
2022-11-25T08:36:29.167Z,9.35
2022-11-25T08:38:59.093Z,17.75
2022-11-25T08:41:30.158Z,11.88
2022-11-25T08:46:31.076Z,12.88
2022-11-25T08:48:59.261Z,11.85
2022-11-25T08:51:29.327Z,9.65
2022-11-25T08:53:58.731Z,8.85
2022-11-25T08:56:27.424Z,13.38
2022-11-25T08:58:57.705Z,10.68
2022-11-25T09:01:26.209Z,8.23
2022-11-25T09:03:56.422Z,8.55
2022-11-25T09:06:26.008Z,7.50
2022-11-25T09:08:57.687Z,13.55
2022-11-25T09:11:26.929Z,7.82
2022-11-25T09:13:56.623Z,11.77
2022-11-25T09:16:26.790Z,7.85
2022-11-25T09:18:56.311Z,9.85
2022-11-25T09:21:25.898Z,8.75
2022-11-25T09:23:55.114Z,9.00
2022-11-25T09:26:25.784Z,9.60
2022-11-25T09:28:53.930Z,8.45
2022-11-25T09:31:24.096Z,7.30
2022-11-25T09:33:52.338Z,11.00
2022-11-25T09:36:21.473Z,12.27
2022-11-25T09:38:49.603Z,13.10
2022-11-25T09:41:48.538Z,10.00
2022-11-25T09:44:47.390Z,10.52
2022-11-25T09:47:26.555Z,7.60
2022-11-25T09:50:09.927Z,7.05
2022-11-25T09:52:47.615Z,9.77
2022-11-25T09:55:18.792Z,6.53
2022-11-25T09:58:06.480Z,8.35
2022-11-25T10:00:40.934Z,10.77
2022-11-25T10:03:18.234Z,10.80
2022-11-25T10:05:52.839Z,8.20
2022-11-25T10:08:25.294Z,5.95
2022-11-25T10:10:59.824Z,13.88
2022-11-25T10:13:35.439Z,11.23
2022-11-25T10:16:08.864Z,15.65
2022-11-25T10:18:43.691Z,13.90
2022-11-25T10:21:12.591Z,12.05
2022-11-25T10:23:41.300Z,13.50
2022-11-25T10:26:14.913Z,9.98
2022-11-25T10:28:49.180Z,10.52
2022-11-25T10:31:20.635Z,8.32
2022-11-25T10:33:52.993Z,8.90
2022-11-25T10:36:24.855Z,9.13
2022-11-25T10:38:59.450Z,17.70
2022-11-25T10:41:32.324Z,11.15
2022-11-25T10:44:00.413Z,14.00
2022-11-25T10:47:11.070Z,10.30
2022-11-25T10:49:31.819Z,8.27
2022-11-25T10:51:59.934Z,17.98
2022-11-25T10:54:29.609Z,11.52
2022-11-25T10:57:00.395Z,12.43
2022-11-25T10:59:30.839Z,12.18
2022-11-25T11:02:19.163Z,8.73
2022-11-25T11:04:55.866Z,16.02
2022-11-25T11:07:25.152Z,10.30
2022-11-25T11:09:53.446Z,10.35
2022-11-25T11:12:24.068Z,16.75
2022-11-25T11:14:52.993Z,16.65
2022-11-25T11:17:36.353Z,18.88
2022-11-25T11:20:20.554Z,11.18
2022-11-25T11:22:52.909Z,16.73
2022-11-25T11:25:31.349Z,9.90
2022-11-25T11:28:00.222Z,14.40
2022-11-25T11:30:30.134Z,9.55
2022-11-25T11:33:05.127Z,7.07
2022-11-25T11:35:51.946Z,11.88
2022-11-25T11:38:32.673Z,11.93
2022-11-25T11:41:12.283Z,12.68
2022-11-25T11:44:00.502Z,11.68
2022-11-25T11:46:38.061Z,8.93
2022-11-25T11:49:25.023Z,11.13
2022-11-25T11:52:04.444Z,9.50
2022-11-25T11:54:36.665Z,8.77
2022-11-25T11:57:08.474Z,9.70
2022-11-25T11:59:50.176Z,11.32
2022-11-25T12:02:43.696Z,10.02
2022-11-25T12:05:19.183Z,10.30
2022-11-25T12:08:01.280Z,8.93
2022-11-25T12:10:33.990Z,10.18
2022-11-25T12:13:12.926Z,9.82
2022-11-25T12:15:48.482Z,12.82
2022-11-25T12:18:29.806Z,10.85
2022-11-25T12:21:03.874Z,9.82
2022-11-25T12:23:43.405Z,8.60
2022-11-25T12:26:16.432Z,9.73
2022-11-25T12:28:50.982Z,13.02
2022-11-25T12:31:23.654Z,18.85
2022-11-25T12:34:00.626Z,12.65
2022-11-25T12:36:34.214Z,16.13
2022-11-25T12:39:06.633Z,14.68
2022-11-25T12:41:42.330Z,19.45
2022-11-25T12:44:17.997Z,16.55
2022-11-25T12:46:48.975Z,16.45
2022-11-25T12:52:17.293Z,9.77
2022-11-25T12:55:19.015Z,17.75
2022-11-25T12:58:19.980Z,13.55
2022-11-25T13:01:22.700Z,12.60
2022-11-25T13:04:20.769Z,13.32
2022-11-25T13:07:22.175Z,17.30
2022-11-25T13:10:20.018Z,10.68
2022-11-25T13:13:04.471Z,11.77
2022-11-25T13:15:38.187Z,14.43
2022-11-25T13:18:13.311Z,11.68
2022-11-25T13:20:48.321Z,13.75
2022-11-25T13:23:29.291Z,13.15
2022-11-25T13:26:49.319Z,14.90
2022-11-25T13:30:02.681Z,11.00
2022-11-25T13:32:41.134Z,9.63
2022-11-25T13:35:47.937Z,8.88
2022-11-25T13:38:59.880Z,11.05
2022-11-25T13:41:38.382Z,10.48
2022-11-25T13:44:15.056Z,15.88
2022-11-25T13:46:45.377Z,14.98
2022-11-25T13:49:35.257Z,11.30
2022-11-25T13:52:22.601Z,9.90
2022-11-25T13:54:53.597Z,9.70
2022-11-25T13:59:56.898Z,9.15
2022-11-25T14:02:45.462Z,9.23
2022-11-25T14:05:53.884Z,11.93
2022-11-25T14:08:30.062Z,16.00
2022-11-25T14:11:23.581Z,11.93
2022-11-25T14:14:20.139Z,12.38
2022-11-25T14:17:02.455Z,11.90
2022-11-25T14:19:51.983Z,13.82
2022-11-25T14:22:57.418Z,11.35
2022-11-25T14:25:30.214Z,9.60
2022-11-25T14:28:11.384Z,7.85
2022-11-25T14:33:25.254Z,9.48
2022-11-25T14:35:59.785Z,6.97
2022-11-25T14:38:38.243Z,12.27
2022-11-25T14:41:11.488Z,7.35
2022-11-25T14:43:48.461Z,11.00
2022-11-25T14:46:20.687Z,12.30
2022-11-25T14:48:55.375Z,11.13
2022-11-25T14:51:24.353Z,16.15
2022-11-25T14:53:54.687Z,15.55
2022-11-25T14:56:29.141Z,11.20
2022-11-25T14:58:59.244Z,11.98
2022-11-25T15:01:29.130Z,7.40
2022-11-25T15:04:05.009Z,12.07
2022-11-25T15:06:38.169Z,16.50
2022-11-25T15:09:21.568Z,11.45
2022-11-25T15:11:52.440Z,9.68
2022-11-25T15:14:27.290Z,9.38
2022-11-25T15:16:57.087Z,11.98
2022-11-25T15:19:33.439Z,10.20
2022-11-25T15:24:56.010Z,15.60
2022-11-25T15:27:26.845Z,10.05
2022-11-25T15:29:56.655Z,10.20
2022-11-25T15:32:27.863Z,16.13
2022-11-25T15:34:58.608Z,14.70
2022-11-25T15:37:27.087Z,15.55
2022-11-25T15:40:27.608Z,12.38
2022-11-25T15:42:57.338Z,12.87
2022-11-25T15:45:36.617Z,13.32
2022-11-25T15:48:05.595Z,11.32
2022-11-25T15:50:35.301Z,12.50
2022-11-25T15:53:03.816Z,12.68
2022-11-25T15:55:34.577Z,9.98
2022-11-25T15:58:09.730Z,10.40
2022-11-25T16:00:37.939Z,12.48
2022-11-25T16:03:20.654Z,8.95
2022-11-25T16:05:54.831Z,13.82
2022-11-25T16:08:30.043Z,8.63
2022-11-25T16:11:00.667Z,11.05
2022-11-25T16:13:35.031Z,9.15
2022-11-25T16:16:22.168Z,8.50
2022-11-25T16:19:18.598Z,10.45
2022-11-25T16:21:52.826Z,11.18
2022-11-25T16:24:30.463Z,12.13
2022-11-25T16:27:01.261Z,9.18
2022-11-25T16:29:33.447Z,8.77
2022-11-25T16:32:02.345Z,12.68
2022-11-25T16:34:30.929Z,7.90
2022-11-25T16:36:59.112Z,9.13
2022-11-25T16:39:27.214Z,10.68
2022-11-25T16:41:58.702Z,9.35
2022-11-25T16:44:28.448Z,7.13
2022-11-25T16:46:59.125Z,9.20
2022-11-25T16:49:27.544Z,7.75
2022-11-25T16:51:55.620Z,8.80
2022-11-25T16:54:24.689Z,11.13
2022-11-25T16:56:54.722Z,9.57
2022-11-25T16:59:27.767Z,8.35
2022-11-25T17:01:57.561Z,10.00
2022-11-25T17:04:25.773Z,8.98
2022-11-25T17:07:16.864Z,6.18
2022-11-25T17:09:43.857Z,8.75
2022-11-25T17:12:17.119Z,7.88
2022-11-25T17:14:46.351Z,9.07
2022-11-25T17:17:24.480Z,6.72
2022-11-25T17:19:53.159Z,9.55
2022-11-25T17:22:23.002Z,9.13
2022-11-25T17:24:51.281Z,11.95
2022-11-25T17:27:25.946Z,7.55
2022-11-25T17:29:54.909Z,8.25
2022-11-25T17:32:25.428Z,8.90
2022-11-25T17:34:53.734Z,6.72
2022-11-25T17:37:23.954Z,7.57
2022-11-25T17:39:53.632Z,6.67
2022-11-25T17:42:27.893Z,6.22
2022-11-25T17:44:56.031Z,7.20
2022-11-25T17:47:25.520Z,6.15
2022-11-25T17:49:54.437Z,6.78
2022-11-25T17:52:22.755Z,8.32
2022-11-25T17:54:51.052Z,8.52
2022-11-25T17:57:22.693Z,10.13
2022-11-25T17:59:51.067Z,7.65
2022-11-25T18:02:20.932Z,7.55
2022-11-25T18:04:50.618Z,8.40
2022-11-25T18:07:19.285Z,7.78
2022-11-25T18:09:47.417Z,8.48
2022-11-25T18:12:19.760Z,11.38
2022-11-25T18:14:47.963Z,8.95
2022-11-25T18:17:19.114Z,7.68
2022-11-25T18:19:54.548Z,6.78
2022-11-25T18:22:25.055Z,7.50
2022-11-25T18:24:53.567Z,8.65
2022-11-25T18:27:24.754Z,6.88
2022-11-25T18:29:53.965Z,7.35
2022-11-25T18:32:23.579Z,6.80
2022-11-25T18:34:52.276Z,7.57
2022-11-25T18:37:20.479Z,10.60
2022-11-25T18:39:49.954Z,8.25
2022-11-25T18:42:25.370Z,11.10
2022-11-25T18:44:54.778Z,8.85
2022-11-25T18:47:23.240Z,6.95
2022-11-25T18:49:55.792Z,6.75
2022-11-25T18:52:24.709Z,7.82
2022-11-25T18:54:54.238Z,8.07
2022-11-25T18:57:22.381Z,8.20
2022-11-25T19:00:16.956Z,10.85
2022-11-25T19:02:39.074Z,9.10
2022-11-25T19:05:17.991Z,7.40
2022-11-25T19:07:46.946Z,7.50
2022-11-25T19:10:17.855Z,7.10
2022-11-25T19:12:49.405Z,8.88
2022-11-25T19:15:20.413Z,7.88
2022-11-25T19:20:20.037Z,6.35
2022-11-25T19:22:48.393Z,6.75
2022-11-25T19:25:18.073Z,7.57
2022-11-25T19:27:49.697Z,6.13
2022-11-25T19:30:19.196Z,7.60
2022-11-25T19:32:48.932Z,6.97
2022-11-25T19:35:21.074Z,8.35
2022-11-25T19:37:49.394Z,7.80
2022-11-25T19:40:22.303Z,8.32
2022-11-25T19:42:50.423Z,5.95
2022-11-25T19:45:21.070Z,7.97
2022-11-25T19:47:51.914Z,6.13
2022-11-25T19:50:23.456Z,8.10
2022-11-25T19:52:52.478Z,5.82
2022-11-25T19:55:23.811Z,7.20
2022-11-25T19:57:52.951Z,9.10
2022-11-25T20:00:22.750Z,6.45
2022-11-25T20:02:52.958Z,6.22
2022-11-25T20:05:23.509Z,7.13
2022-11-25T20:07:51.639Z,5.85
2022-11-25T20:10:24.332Z,7.75
2022-11-25T20:12:53.091Z,6.57
2022-11-25T20:15:21.536Z,8.77
2022-11-25T20:17:51.502Z,7.80
2022-11-25T20:20:24.382Z,7.25
2022-11-25T20:22:57.276Z,7.95
2022-11-25T20:25:27.439Z,7.07
2022-11-25T20:27:55.675Z,6.33
2022-11-25T20:30:25.980Z,6.57
2022-11-25T20:32:54.263Z,5.83
2022-11-25T20:35:23.756Z,6.07
2022-11-25T20:37:54.073Z,6.95
2022-11-25T20:40:25.444Z,7.80
2022-11-25T20:42:54.966Z,6.40
2022-11-25T20:45:24.364Z,6.95
2022-11-25T20:47:53.035Z,6.00
2022-11-25T20:50:22.172Z,8.05
2022-11-25T20:52:51.014Z,5.95
2022-11-25T20:55:21.462Z,5.72
2022-11-25T20:57:50.585Z,7.07
2022-11-25T21:00:25.049Z,6.93
2022-11-25T21:02:54.226Z,6.95
2022-11-25T21:05:22.732Z,7.78
2022-11-25T21:07:51.980Z,6.15
2022-11-25T21:10:26.502Z,7.53
2022-11-25T21:12:55.279Z,6.10
2022-11-25T21:15:27.432Z,8.77
2022-11-25T21:17:57.585Z,7.65
2022-11-25T21:20:25.967Z,6.53
2022-11-25T21:22:58.513Z,7.70
2022-11-25T21:25:27.145Z,5.97
2022-11-25T21:27:55.512Z,6.70
2022-11-25T21:30:27.230Z,5.78
2022-11-25T21:32:57.229Z,5.65
2022-11-25T21:35:30.185Z,7.35
2022-11-25T21:37:58.909Z,5.55
2022-11-25T21:40:35.465Z,5.93
2022-11-25T21:43:05.151Z,6.55
2022-11-25T21:45:34.773Z,6.28
2022-11-25T21:48:02.903Z,5.55
2022-11-25T21:50:31.191Z,6.13
2022-11-25T21:53:00.939Z,7.47
2022-11-25T21:55:29.206Z,6.28
2022-11-25T21:57:57.324Z,5.30
2022-11-25T22:00:26.910Z,5.90
2022-11-25T22:02:56.446Z,6.72
2022-11-25T22:05:26.658Z,7.45
2022-11-25T22:07:55.341Z,7.13
2022-11-25T22:10:24.015Z,6.78
2022-11-25T22:12:52.194Z,6.00
2022-11-25T22:15:22.652Z,7.50
2022-11-25T22:17:54.169Z,8.23
2022-11-25T22:20:36.020Z,6.82
2022-11-25T22:23:12.154Z,7.25
2022-11-25T22:25:40.246Z,6.78
2022-11-25T22:28:08.394Z,6.20
2022-11-25T22:30:36.547Z,6.85
2022-11-25T22:33:05.092Z,10.30
2022-11-25T22:35:34.701Z,6.75
2022-11-25T22:38:03.264Z,5.68
2022-11-25T22:40:31.425Z,6.53
2022-11-25T22:43:00.890Z,7.60
2022-11-25T22:45:32.856Z,7.22
2022-11-25T22:48:04.360Z,6.45
2022-11-25T22:50:35.528Z,6.90
2022-11-25T22:53:03.658Z,7.05
2022-11-25T22:55:33.434Z,6.00
2022-11-25T22:58:04.068Z,6.30
2022-11-25T23:00:34.695Z,7.82
2022-11-25T23:03:06.413Z,6.45
2022-11-25T23:05:37.755Z,6.20
2022-11-25T23:08:13.428Z,7.35
2022-11-25T23:10:41.553Z,6.38
2022-11-25T23:13:09.950Z,7.20
2022-11-25T23:15:38.437Z,6.57
2022-11-25T23:18:14.972Z,8.85
2022-11-25T23:20:44.440Z,6.75
2022-11-25T23:23:16.463Z,7.35
2022-11-25T23:25:45.405Z,7.10
2022-11-25T23:28:14.054Z,5.90
2022-11-25T23:30:47.911Z,6.32
2022-11-25T23:33:21.214Z,6.38
2022-11-25T23:35:50.754Z,7.15
2022-11-25T23:38:22.787Z,6.28
2022-11-25T23:40:50.958Z,5.85
2022-11-25T23:43:19.183Z,6.15
2022-11-25T23:45:50.920Z,6.07
2022-11-25T23:48:20.018Z,6.47
2022-11-25T23:50:48.665Z,6.88
2022-11-25T23:53:25.838Z,6.35
2022-11-25T23:55:53.892Z,6.88
2022-11-25T23:58:23.637Z,6.50
